Pagina principale
METAR-TAF:

METAR-TAF

Aeroporti :

Saint-Brieuc, Francia

latitudine: 48-32N, longitudine: 002-51W, altezza: 138 m

Osservazione

Il bollettino è stato emesso 44 minuti fa, alle 15:00 UTC
Vento 4 kt da nord, variando fra nord-ovest e nord/nord-est
Temperature 15°C
Umidità 94%
Pressione 1017 hPa
Visibilità: 6000 m
Cielo coperto ad un'altezza di 500 ft
pioggia debole

METAR: LFRT 241500Z AUTO 35004KT 320V020 6000 -RA OVC005 15/14 Q1017

Ora: 17:44 (15:44 UTC)


TAF: mancante

Osservazioni e previsioni meteorologiche di più di 4000 aeroporti (messaggi METAR e TAF).

Le stazioni disponibili sono rappresentate dai dischi gialli e rossi sulla carta.

Puntare il mouse per vedere il nome della stazione.

Clicca sopra per visualizzare le osservazioni e previsioni meteorologiche.

Per cambiare la mappa : fare clic sui pulsanti verdi con una croce nera per ingrandire, il pulsante verde con un trattino per diminuire, o sulla freccia verde per le mappe adiacenti.


METAR-TAF: